Lakewood, Washington
Current Conditions -  °F | °C
As of 4:58 PM on Sunday 23 Nov 2014 (Local Time) from KTCM Reporting Station
Clear Clear  
Wind Chill: 44°   Ceiling: Unl
Heat Index: 49°   Visibility: 10mi
Dew Point: 42°   Wind: 13mph
Humidity: 77%   Direction: 210°SSW
Pressure: 30.21"   Gusts: NA
Location:  47.17°N, 122.51°W
Report Text: KTCM 240058Z AUTO 21011KT 10SM CLR 10/06 A3021 RMK AO2 SLP235 T00960057 $
Loading
Personal Weather Stations






























Interactive Weather Map New forecast layout! Learn more

10-Day Weather Forecast

Advertisements
Track Severe Weather on mobile